sensor_id;sensor_type;location;lat;lon;timestamp;pressure;altitude;pressure_sealevel;temperature;humidity
24154;BME280;12312;53.362;-1.518;2022-10-16T00:00:36;97667.56;;;9.01;84.39
24154;BME280;12312;53.362;-1.518;2022-10-16T00:03:04;97660.47;;;9.02;84.18
24154;BME280;12312;53.362;-1.518;2022-10-16T00:05:31;97660.19;;;9.05;84.78
24154;BME280;12312;53.362;-1.518;2022-10-16T00:07:57;97656.53;;;9.06;84.29
24154;BME280;12312;53.362;-1.518;2022-10-16T00:10:23;97657.94;;;9.00;85.20
24154;BME280;12312;53.362;-1.518;2022-10-16T00:12:49;97662.69;;;9.07;84.84
24154;BME280;12312;53.362;-1.518;2022-10-16T00:15:15;97662.41;;;9.10;85.76
24154;BME280;12312;53.362;-1.518;2022-10-16T00:17:41;97660.19;;;8.95;86.77
24154;BME280;12312;53.362;-1.518;2022-10-16T00:20:07;97659.47;;;8.93;86.65
24154;BME280;12312;53.362;-1.518;2022-10-16T00:22:33;97654.44;;;8.90;87.74
24154;BME280;12312;53.362;-1.518;2022-10-16T00:24:58;97638.09;;;8.95;86.44
24154;BME280;12312;53.362;-1.518;2022-10-16T00:27:24;97646.63;;;8.98;86.49
24154;BME280;12312;53.362;-1.518;2022-10-16T00:29:51;97647.63;;;8.97;86.64
24154;BME280;12312;53.362;-1.518;2022-10-16T00:32:20;97675.53;;;9.01;86.86
24154;BME280;12312;53.362;-1.518;2022-10-16T00:34:46;97658.63;;;9.12;86.20
24154;BME280;12312;53.362;-1.518;2022-10-16T00:37:13;97660.88;;;9.17;85.94
24154;BME280;12312;53.362;-1.518;2022-10-16T00:39:38;97657.22;;;9.18;86.47
24154;BME280;12312;53.362;-1.518;2022-10-16T00:42:04;97654.56;;;9.18;86.11
24154;BME280;12312;53.362;-1.518;2022-10-16T00:44:53;97670.34;;;9.19;85.51
24154;BME280;12312;53.362;-1.518;2022-10-16T00:47:37;97664.22;;;9.19;85.54
24154;BME280;12312;53.362;-1.518;2022-10-16T00:50:18;97667.44;;;9.13;86.70
24154;BME280;12312;53.362;-1.518;2022-10-16T00:52:49;97670.38;;;9.10;86.77
24154;BME280;12312;53.362;-1.518;2022-10-16T00:55:16;97675.25;;;9.04;86.75
24154;BME280;12312;53.362;-1.518;2022-10-16T00:57:42;97669.38;;;9.01;87.31
24154;BME280;12312;53.362;-1.518;2022-10-16T01:00:10;97680.84;;;9.01;87.64
24154;BME280;12312;53.362;-1.518;2022-10-16T01:02:36;97689.09;;;8.98;87.55
24154;BME280;12312;53.362;-1.518;2022-10-16T01:05:03;97695.91;;;9.01;87.47
24154;BME280;12312;53.362;-1.518;2022-10-16T01:07:53;97688.94;;;9.00;87.63
24154;BME280;12312;53.362;-1.518;2022-10-16T01:10:40;97691.47;;;9.01;87.36
24154;BME280;12312;53.362;-1.518;2022-10-16T01:13:18;97694.81;;;9.03;87.00
24154;BME280;12312;53.362;-1.518;2022-10-16T01:18:47;97704.31;;;9.06;87.32
24154;BME280;12312;53.362;-1.518;2022-10-16T01:21:31;97702.63;;;9.05;86.98
24154;BME280;12312;53.362;-1.518;2022-10-16T01:38:25;97716.03;;;9.03;85.59
24154;BME280;12312;53.362;-1.518;2022-10-16T01:40:32;97712.84;;;9.10;84.69
24154;BME280;12312;53.362;-1.518;2022-10-16T01:43:03;97722.19;;;9.14;83.77
24154;BME280;12312;53.362;-1.518;2022-10-16T01:45:31;97727.22;;;9.17;84.03
24154;BME280;12312;53.362;-1.518;2022-10-16T01:48:00;97733.34;;;9.07;85.35
24154;BME280;12312;53.362;-1.518;2022-10-16T01:50:31;97740.31;;;8.89;87.10
24154;BME280;12312;53.362;-1.518;2022-10-16T01:52:59;97733.59;;;8.76;88.67
24154;BME280;12312;53.362;-1.518;2022-10-16T01:55:39;97753.09;;;8.65;89.02
24154;BME280;12312;53.362;-1.518;2022-10-16T01:58:11;97749.75;;;8.63;89.10
24154;BME280;12312;53.362;-1.518;2022-10-16T02:00:40;97755.03;;;8.63;88.69
24154;BME280;12312;53.362;-1.518;2022-10-16T02:03:14;97751.69;;;8.61;88.71
24154;BME280;12312;53.362;-1.518;2022-10-16T02:05:45;97763.00;;;8.63;88.38
24154;BME280;12312;53.362;-1.518;2022-10-16T02:08:25;97758.00;;;8.70;87.88
24154;BME280;12312;53.362;-1.518;2022-10-16T02:10:55;97763.72;;;8.65;87.81
24154;BME280;12312;53.362;-1.518;2022-10-16T02:15:49;97770.59;;;8.77;86.75
24154;BME280;12312;53.362;-1.518;2022-10-16T02:18:15;97786.22;;;8.80;86.20
24154;BME280;12312;53.362;-1.518;2022-10-16T02:20:53;97786.41;;;8.88;85.66
24154;BME280;12312;53.362;-1.518;2022-10-16T02:23:30;97789.47;;;8.93;84.64
24154;BME280;12312;53.362;-1.518;2022-10-16T02:26:03;97795.22;;;8.98;84.47
24154;BME280;12312;53.362;-1.518;2022-10-16T02:28:58;97799.25;;;9.02;84.31
24154;BME280;12312;53.362;-1.518;2022-10-16T02:31:28;97802.63;;;9.04;84.62
24154;BME280;12312;53.362;-1.518;2022-10-16T02:33:58;97805.00;;;9.07;84.07
24154;BME280;12312;53.362;-1.518;2022-10-16T02:36:27;97821.19;;;9.04;83.96
24154;BME280;12312;53.362;-1.518;2022-10-16T02:38:54;97822.88;;;9.05;82.92
24154;BME280;12312;53.362;-1.518;2022-10-16T02:41:21;97827.75;;;9.00;84.55
24154;BME280;12312;53.362;-1.518;2022-10-16T02:43:48;97833.88;;;8.91;84.98
24154;BME280;12312;53.362;-1.518;2022-10-16T02:46:15;97840.75;;;9.03;83.94
24154;BME280;12312;53.362;-1.518;2022-10-16T02:48:42;97842.88;;;9.10;84.29
24154;BME280;12312;53.362;-1.518;2022-10-16T02:51:08;97840.63;;;9.15;83.44
24154;BME280;12312;53.362;-1.518;2022-10-16T02:53:33;97850.41;;;9.14;83.14
24154;BME280;12312;53.362;-1.518;2022-10-16T02:55:59;97851.50;;;9.12;84.38
24154;BME280;12312;53.362;-1.518;2022-10-16T02:58:25;97849.72;;;9.12;84.46
24154;BME280;12312;53.362;-1.518;2022-10-16T03:00:53;97855.88;;;9.13;84.95
24154;BME280;12312;53.362;-1.518;2022-10-16T03:03:18;97848.19;;;9.10;84.81
24154;BME280;12312;53.362;-1.518;2022-10-16T03:05:44;97860.72;;;9.07;84.23
24154;BME280;12312;53.362;-1.518;2022-10-16T03:08:13;97855.88;;;9.13;85.33
24154;BME280;12312;53.362;-1.518;2022-10-16T03:10:41;97870.50;;;9.07;85.23
24154;BME280;12312;53.362;-1.518;2022-10-16T03:13:07;97876.97;;;9.14;84.90
24154;BME280;12312;53.362;-1.518;2022-10-16T03:15:32;97887.00;;;9.11;84.69
24154;BME280;12312;53.362;-1.518;2022-10-16T03:17:58;97897.88;;;9.07;84.90
24154;BME280;12312;53.362;-1.518;2022-10-16T03:20:26;97897.34;;;9.14;85.03
24154;BME280;12312;53.362;-1.518;2022-10-16T03:22:52;97905.72;;;9.09;84.75
24154;BME280;12312;53.362;-1.518;2022-10-16T03:25:19;97910.16;;;8.99;85.52
24154;BME280;12312;53.362;-1.518;2022-10-16T03:27:45;97909.06;;;9.11;84.79
24154;BME280;12312;53.362;-1.518;2022-10-16T03:30:12;97912.69;;;9.10;84.48
24154;BME280;12312;53.362;-1.518;2022-10-16T03:32:38;97917.16;;;9.10;84.41
24154;BME280;12312;53.362;-1.518;2022-10-16T03:35:04;97917.44;;;9.07;84.73
24154;BME280;12312;53.362;-1.518;2022-10-16T03:37:31;97941.66;;;8.92;85.34
24154;BME280;12312;53.362;-1.518;2022-10-16T03:39:58;97936.38;;;8.92;85.49
24154;BME280;12312;53.362;-1.518;2022-10-16T03:42:24;97952.88;;;8.96;83.93
24154;BME280;12312;53.362;-1.518;2022-10-16T03:44:50;97954.22;;;8.90;84.79
24154;BME280;12312;53.362;-1.518;2022-10-16T03:47:16;97961.75;;;8.85;84.67
24154;BME280;12312;53.362;-1.518;2022-10-16T03:49:46;97961.88;;;8.84;84.32
24154;BME280;12312;53.362;-1.518;2022-10-16T03:52:11;97971.50;;;8.85;83.64
24154;BME280;12312;53.362;-1.518;2022-10-16T03:54:37;97988.06;;;8.77;83.76
24154;BME280;12312;53.362;-1.518;2022-10-16T03:57:04;97993.84;;;8.82;83.92
24154;BME280;12312;53.362;-1.518;2022-10-16T03:59:30;97994.72;;;8.72;84.53
24154;BME280;12312;53.362;-1.518;2022-10-16T04:01:57;98009.59;;;8.63;85.30
24154;BME280;12312;53.362;-1.518;2022-10-16T04:04:24;98013.19;;;8.73;84.93
24154;BME280;12312;53.362;-1.518;2022-10-16T04:06:51;98011.09;;;8.77;84.04
24154;BME280;12312;53.362;-1.518;2022-10-16T04:09:18;98026.00;;;8.68;84.72
24154;BME280;12312;53.362;-1.518;2022-10-16T04:11:45;98036.34;;;8.71;85.16
24154;BME280;12312;53.362;-1.518;2022-10-16T04:14:11;98039.00;;;8.71;84.83
24154;BME280;12312;53.362;-1.518;2022-10-16T04:16:36;98044.03;;;8.74;84.79
24154;BME280;12312;53.362;-1.518;2022-10-16T04:19:02;98042.84;;;8.67;84.39
24154;BME280;12312;53.362;-1.518;2022-10-16T04:21:28;98057.09;;;8.66;85.21
24154;BME280;12312;53.362;-1.518;2022-10-16T04:23:55;98067.94;;;8.63;85.35
24154;BME280;12312;53.362;-1.518;2022-10-16T04:26:21;98071.50;;;8.53;85.52
24154;BME280;12312;53.362;-1.518;2022-10-16T04:28:47;98093.88;;;8.60;84.89
24154;BME280;12312;53.362;-1.518;2022-10-16T04:31:13;98082.81;;;8.55;85.26
24154;BME280;12312;53.362;-1.518;2022-10-16T04:33:38;98095.72;;;8.48;85.62
24154;BME280;12312;53.362;-1.518;2022-10-16T04:36:04;98108.75;;;8.40;86.17
24154;BME280;12312;53.362;-1.518;2022-10-16T04:38:29;98115.41;;;8.35;86.49
24154;BME280;12312;53.362;-1.518;2022-10-16T04:40:55;98119.63;;;8.37;86.45
24154;BME280;12312;53.362;-1.518;2022-10-16T04:43:21;98126.88;;;8.24;87.17
24154;BME280;12312;53.362;-1.518;2022-10-16T04:45:47;98136.63;;;8.24;87.53
24154;BME280;12312;53.362;-1.518;2022-10-16T04:48:16;98143.00;;;8.10;88.12
24154;BME280;12312;53.362;-1.518;2022-10-16T04:50:41;98144.94;;;8.08;87.78
24154;BME280;12312;53.362;-1.518;2022-10-16T04:53:07;98151.94;;;8.09;87.73
24154;BME280;12312;53.362;-1.518;2022-10-16T04:55:33;98146.88;;;8.06;87.70
24154;BME280;12312;53.362;-1.518;2022-10-16T04:57:59;98150.72;;;8.13;87.00
24154;BME280;12312;53.362;-1.518;2022-10-16T05:00:26;98147.81;;;8.16;86.54
24154;BME280;12312;53.362;-1.518;2022-10-16T05:02:53;98148.78;;;8.04;86.88
24154;BME280;12312;53.362;-1.518;2022-10-16T05:05:19;98153.84;;;8.07;86.53
24154;BME280;12312;53.362;-1.518;2022-10-16T05:07:46;98158.22;;;7.97;87.13
24154;BME280;12312;53.362;-1.518;2022-10-16T05:10:13;98171.34;;;7.99;86.91
24154;BME280;12312;53.362;-1.518;2022-10-16T05:12:39;98173.38;;;8.06;86.04
24154;BME280;12312;53.362;-1.518;2022-10-16T05:15:05;98180.09;;;7.99;86.43
24154;BME280;12312;53.362;-1.518;2022-10-16T05:17:31;98183.00;;;7.96;85.43
24154;BME280;12312;53.362;-1.518;2022-10-16T05:19:57;98182.41;;;7.93;85.64
24154;BME280;12312;53.362;-1.518;2022-10-16T05:22:22;98186.63;;;7.95;85.17
24154;BME280;12312;53.362;-1.518;2022-10-16T05:24:49;98199.59;;;7.87;85.57
24154;BME280;12312;53.362;-1.518;2022-10-16T05:27:15;98210.44;;;7.84;85.42
24154;BME280;12312;53.362;-1.518;2022-10-16T05:29:47;98218.38;;;7.73;85.88
24154;BME280;12312;53.362;-1.518;2022-10-16T05:32:16;98212.38;;;7.82;85.04
24154;BME280;12312;53.362;-1.518;2022-10-16T05:34:43;98213.09;;;7.73;84.80
24154;BME280;12312;53.362;-1.518;2022-10-16T05:37:10;98225.97;;;7.78;85.10
24154;BME280;12312;53.362;-1.518;2022-10-16T05:39:37;98229.81;;;7.74;84.95
24154;BME280;12312;53.362;-1.518;2022-10-16T05:42:04;98241.72;;;7.68;84.47
24154;BME280;12312;53.362;-1.518;2022-10-16T05:44:30;98241.44;;;7.60;84.51
24154;BME280;12312;53.362;-1.518;2022-10-16T05:46:56;98242.06;;;7.64;84.52
24154;BME280;12312;53.362;-1.518;2022-10-16T05:49:21;98247.72;;;7.59;84.21
24154;BME280;12312;53.362;-1.518;2022-10-16T05:51:47;98240.94;;;7.55;83.59
24154;BME280;12312;53.362;-1.518;2022-10-16T05:54:14;98243.59;;;7.44;84.75
24154;BME280;12312;53.362;-1.518;2022-10-16T05:56:41;98250.84;;;7.53;83.45
24154;BME280;12312;53.362;-1.518;2022-10-16T05:59:33;98249.63;;;7.57;82.98
24154;BME280;12312;53.362;-1.518;2022-10-16T06:01:59;98262.59;;;7.49;83.91
24154;BME280;12312;53.362;-1.518;2022-10-16T06:04:28;98267.41;;;7.55;84.55
24154;BME280;12312;53.362;-1.518;2022-10-16T06:06:53;98279.84;;;7.55;82.97
24154;BME280;12312;53.362;-1.518;2022-10-16T06:09:20;98279.94;;;7.53;83.28
24154;BME280;12312;53.362;-1.518;2022-10-16T06:11:46;98278.47;;;7.49;83.21
24154;BME280;12312;53.362;-1.518;2022-10-16T06:14:12;98277.66;;;7.49;83.74
24154;BME280;12312;53.362;-1.518;2022-10-16T06:16:38;98280.41;;;7.47;83.56
24154;BME280;12312;53.362;-1.518;2022-10-16T06:19:04;98275.34;;;7.44;83.21
24154;BME280;12312;53.362;-1.518;2022-10-16T06:21:31;98270.50;;;7.38;83.26
24154;BME280;12312;53.362;-1.518;2022-10-16T06:23:58;98277.72;;;7.36;83.88
24154;BME280;12312;53.362;-1.518;2022-10-16T06:26:26;98280.88;;;7.41;83.01
24154;BME280;12312;53.362;-1.518;2022-10-16T06:28:54;98283.53;;;7.41;83.33
24154;BME280;12312;53.362;-1.518;2022-10-16T06:31:22;98286.66;;;7.46;83.05
24154;BME280;12312;53.362;-1.518;2022-10-16T06:33:51;98295.56;;;7.45;82.78
24154;BME280;12312;53.362;-1.518;2022-10-16T06:36:17;98300.34;;;7.40;82.57
24154;BME280;12312;53.362;-1.518;2022-10-16T06:38:43;98308.78;;;7.45;83.00
24154;BME280;12312;53.362;-1.518;2022-10-16T06:41:15;98320.91;;;7.37;83.35
24154;BME280;12312;53.362;-1.518;2022-10-16T06:43:46;98327.47;;;7.31;84.14
24154;BME280;12312;53.362;-1.518;2022-10-16T06:46:17;98335.31;;;7.32;83.26
24154;BME280;12312;53.362;-1.518;2022-10-16T06:48:45;98340.00;;;7.29;83.97
24154;BME280;12312;53.362;-1.518;2022-10-16T06:51:20;98346.97;;;7.30;85.40
24154;BME280;12312;53.362;-1.518;2022-10-16T06:53:55;98337.34;;;7.29;83.91
24154;BME280;12312;53.362;-1.518;2022-10-16T06:56:42;98345.53;;;7.26;85.69
24154;BME280;12312;53.362;-1.518;2022-10-16T06:59:09;98347.94;;;7.29;83.96
24154;BME280;12312;53.362;-1.518;2022-10-16T07:01:34;98353.34;;;7.28;84.27
24154;BME280;12312;53.362;-1.518;2022-10-16T07:04:00;98358.31;;;7.32;84.36
24154;BME280;12312;53.362;-1.518;2022-10-16T07:06:31;98362.00;;;7.29;83.72
24154;BME280;12312;53.362;-1.518;2022-10-16T07:08:57;98355.53;;;7.34;83.75
24154;BME280;12312;53.362;-1.518;2022-10-16T07:11:23;98368.34;;;7.40;83.09
24154;BME280;12312;53.362;-1.518;2022-10-16T07:13:50;98374.44;;;7.40;83.28
24154;BME280;12312;53.362;-1.518;2022-10-16T07:16:25;98375.19;;;7.42;83.20
24154;BME280;12312;53.362;-1.518;2022-10-16T07:18:54;98381.94;;;7.46;84.16
24154;BME280;12312;53.362;-1.518;2022-10-16T07:21:24;98377.63;;;7.45;84.18
24154;BME280;12312;53.362;-1.518;2022-10-16T07:23:51;98396.31;;;7.55;82.93
24154;BME280;12312;53.362;-1.518;2022-10-16T07:26:17;98393.56;;;7.56;83.47
24154;BME280;12312;53.362;-1.518;2022-10-16T07:28:43;98389.19;;;7.55;83.17
24154;BME280;12312;53.362;-1.518;2022-10-16T07:31:12;98388.97;;;7.58;83.18
24154;BME280;12312;53.362;-1.518;2022-10-16T07:33:39;98396.22;;;7.56;83.21
24154;BME280;12312;53.362;-1.518;2022-10-16T07:36:08;98381.78;;;7.60;83.01
24154;BME280;12312;53.362;-1.518;2022-10-16T07:38:34;98402.09;;;7.60;82.99
24154;BME280;12312;53.362;-1.518;2022-10-16T07:41:05;98403.25;;;7.68;82.81
24154;BME280;12312;53.362;-1.518;2022-10-16T07:43:33;98418.16;;;7.69;82.70
24154;BME280;12312;53.362;-1.518;2022-10-16T07:46:00;98401.53;;;7.67;83.05
24154;BME280;12312;53.362;-1.518;2022-10-16T07:48:28;98403.03;;;7.71;82.96
24154;BME280;12312;53.362;-1.518;2022-10-16T07:51:01;98423.22;;;7.72;83.11
24154;BME280;12312;53.362;-1.518;2022-10-16T07:53:27;98414.34;;;7.73;83.53
24154;BME280;12312;53.362;-1.518;2022-10-16T07:56:02;98438.78;;;7.77;83.21
24154;BME280;12312;53.362;-1.518;2022-10-16T07:58:28;98434.41;;;7.88;82.48
24154;BME280;12312;53.362;-1.518;2022-10-16T08:00:54;98449.72;;;7.96;82.20
24154;BME280;12312;53.362;-1.518;2022-10-16T08:03:21;98436.38;;;8.08;82.04
24154;BME280;12312;53.362;-1.518;2022-10-16T08:05:47;98441.78;;;7.96;82.68
24154;BME280;12312;53.362;-1.518;2022-10-16T08:08:14;98442.94;;;8.15;82.16
24154;BME280;12312;53.362;-1.518;2022-10-16T08:10:41;98462.19;;;8.17;82.37
24154;BME280;12312;53.362;-1.518;2022-10-16T08:13:08;98458.84;;;8.15;82.66
24154;BME280;12312;53.362;-1.518;2022-10-16T08:15:33;98463.25;;;8.27;82.19
24154;BME280;12312;53.362;-1.518;2022-10-16T08:18:03;98471.47;;;8.35;82.03
24154;BME280;12312;53.362;-1.518;2022-10-16T08:20:30;98486.69;;;8.44;81.72
24154;BME280;12312;53.362;-1.518;2022-10-16T08:22:56;98486.00;;;8.53;80.65
24154;BME280;12312;53.362;-1.518;2022-10-16T08:25:23;98481.34;;;8.33;81.54
24154;BME280;12312;53.362;-1.518;2022-10-16T08:27:49;98491.06;;;8.56;80.17
24154;BME280;12312;53.362;-1.518;2022-10-16T08:30:17;98478.16;;;8.63;79.92
24154;BME280;12312;53.362;-1.518;2022-10-16T08:32:43;98497.34;;;8.66;79.72
24154;BME280;12312;53.362;-1.518;2022-10-16T08:35:10;98491.09;;;8.78;79.44
24154;BME280;12312;53.362;-1.518;2022-10-16T08:37:37;98498.63;;;8.95;78.62
24154;BME280;12312;53.362;-1.518;2022-10-16T08:40:04;98508.25;;;8.85;78.52
24154;BME280;12312;53.362;-1.518;2022-10-16T08:45:19;98526.13;;;8.94;78.97
24154;BME280;12312;53.362;-1.518;2022-10-16T08:50:45;98544.25;;;9.23;76.88
24154;BME280;12312;53.362;-1.518;2022-10-16T08:53:17;98538.94;;;9.23;75.86
24154;BME280;12312;53.362;-1.518;2022-10-16T08:55:54;98558.13;;;9.48;75.43
24154;BME280;12312;53.362;-1.518;2022-10-16T08:58:21;98563.09;;;9.53;75.27
24154;BME280;12312;53.362;-1.518;2022-10-16T09:00:56;98583.97;;;9.46;76.82
24154;BME280;12312;53.362;-1.518;2022-10-16T09:06:42;98581.81;;;9.73;73.90
24154;BME280;12312;53.362;-1.518;2022-10-16T09:09:52;98600.75;;;9.58;75.06
24154;BME280;12312;53.362;-1.518;2022-10-16T09:12:27;98609.47;;;9.93;73.24
24154;BME280;12312;53.362;-1.518;2022-10-16T09:18:23;98602.44;;;10.14;72.60
24154;BME280;12312;53.362;-1.518;2022-10-16T09:20:51;98605.34;;;10.00;72.79
24154;BME280;12312;53.362;-1.518;2022-10-16T09:23:25;98613.66;;;10.06;73.24
24154;BME280;12312;53.362;-1.518;2022-10-16T09:25:53;98614.19;;;10.11;73.48
24154;BME280;12312;53.362;-1.518;2022-10-16T09:28:20;98620.31;;;10.34;71.28
24154;BME280;12312;53.362;-1.518;2022-10-16T09:30:50;98630.19;;;10.43;74.29
24154;BME280;12312;53.362;-1.518;2022-10-16T09:33:20;98632.75;;;10.22;72.38
24154;BME280;12312;53.362;-1.518;2022-10-16T09:35:52;98650.81;;;10.19;71.45
24154;BME280;12312;53.362;-1.518;2022-10-16T09:38:30;98656.13;;;10.30;71.71
24154;BME280;12312;53.362;-1.518;2022-10-16T09:41:00;98639.84;;;10.55;69.55
24154;BME280;12312;53.362;-1.518;2022-10-16T09:46:29;98658.03;;;10.17;70.73
24154;BME280;12312;53.362;-1.518;2022-10-16T09:49:18;98652.72;;;10.28;71.60
24154;BME280;12312;53.362;-1.518;2022-10-16T09:51:46;98653.91;;;10.35;71.60
24154;BME280;12312;53.362;-1.518;2022-10-16T09:54:18;98654.28;;;10.41;70.24
24154;BME280;12312;53.362;-1.518;2022-10-16T09:56:49;98666.56;;;10.53;70.57
24154;BME280;12312;53.362;-1.518;2022-10-16T09:59:21;98677.28;;;10.74;68.80
24154;BME280;12312;53.362;-1.518;2022-10-16T10:01:55;98680.47;;;10.57;69.75
24154;BME280;12312;53.362;-1.518;2022-10-16T10:04:23;98695.72;;;10.44;70.90
24154;BME280;12312;53.362;-1.518;2022-10-16T10:06:53;98699.84;;;10.37;70.34
24154;BME280;12312;53.362;-1.518;2022-10-16T10:09:34;98702.50;;;10.48;71.72
24154;BME280;12312;53.362;-1.518;2022-10-16T10:12:04;98706.09;;;10.58;68.90
24154;BME280;12312;53.362;-1.518;2022-10-16T10:14:48;98708.91;;;10.56;69.25
24154;BME280;12312;53.362;-1.518;2022-10-16T10:17:26;98717.00;;;10.66;69.81
24154;BME280;12312;53.362;-1.518;2022-10-16T10:20:25;98721.19;;;10.79;69.71
24154;BME280;12312;53.362;-1.518;2022-10-16T10:22:53;98716.25;;;10.75;69.81
24154;BME280;12312;53.362;-1.518;2022-10-16T10:25:26;98720.09;;;10.71;69.54
24154;BME280;12312;53.362;-1.518;2022-10-16T10:33:49;98728.91;;;11.25;67.43
24154;BME280;12312;53.362;-1.518;2022-10-16T10:36:28;98727.03;;;11.05;69.02
24154;BME280;12312;53.362;-1.518;2022-10-16T10:39:00;98724.91;;;10.88;69.06
24154;BME280;12312;53.362;-1.518;2022-10-16T10:44:15;98718.78;;;10.76;68.06
24154;BME280;12312;53.362;-1.518;2022-10-16T11:00:30;98739.94;;;11.52;65.21
24154;BME280;12312;53.362;-1.518;2022-10-16T11:08:41;98764.38;;;11.89;61.57
24154;BME280;12312;53.362;-1.518;2022-10-16T11:11:10;98769.03;;;11.96;62.08
24154;BME280;12312;53.362;-1.518;2022-10-16T11:13:55;98773.88;;;12.32;61.33
24154;BME280;12312;53.362;-1.518;2022-10-16T11:16:28;98769.69;;;13.09;56.69
24154;BME280;12312;53.362;-1.518;2022-10-16T11:19:01;98765.78;;;13.99;56.83
24154;BME280;12312;53.362;-1.518;2022-10-16T11:21:32;98771.91;;;14.28;52.42
24154;BME280;12312;53.362;-1.518;2022-10-16T11:24:06;98764.34;;;14.04;53.43
24154;BME280;12312;53.362;-1.518;2022-10-16T11:26:39;98747.06;;;15.26;51.87
24154;BME280;12312;53.362;-1.518;2022-10-16T11:29:13;98753.63;;;15.41;50.44
24154;BME280;12312;53.362;-1.518;2022-10-16T11:31:49;98756.03;;;15.87;47.84
24154;BME280;12312;53.362;-1.518;2022-10-16T11:34:28;98751.16;;;15.65;46.92
24154;BME280;12312;53.362;-1.518;2022-10-16T11:37:05;98748.81;;;16.06;46.33
24154;BME280;12312;53.362;-1.518;2022-10-16T11:39:34;98746.00;;;15.89;46.80
24154;BME280;12312;53.362;-1.518;2022-10-16T11:42:21;98744.56;;;15.42;48.60
24154;BME280;12312;53.362;-1.518;2022-10-16T11:44:58;98749.91;;;15.95;48.78
24154;BME280;12312;53.362;-1.518;2022-10-16T11:47:50;98741.63;;;16.40;45.66
24154;BME280;12312;53.362;-1.518;2022-10-16T11:51:11;98734.31;;;15.55;46.25
24154;BME280;12312;53.362;-1.518;2022-10-16T11:53:43;98732.34;;;16.93;42.88
24154;BME280;12312;53.362;-1.518;2022-10-16T11:56:16;98748.44;;;16.00;44.03
24154;BME280;12312;53.362;-1.518;2022-10-16T12:07:59;98747.41;;;16.01;42.35
24154;BME280;12312;53.362;-1.518;2022-10-16T12:10:28;98741.31;;;16.43;42.73
24154;BME280;12312;53.362;-1.518;2022-10-16T12:12:54;98731.13;;;16.46;41.97
24154;BME280;12312;53.362;-1.518;2022-10-16T12:15:25;98738.50;;;16.44;42.29
24154;BME280;12312;53.362;-1.518;2022-10-16T12:17:52;98736.13;;;17.16;41.13
24154;BME280;12312;53.362;-1.518;2022-10-16T12:22:50;98739.91;;;16.90;40.57
24154;BME280;12312;53.362;-1.518;2022-10-16T12:25:39;98739.25;;;16.96;41.51
24154;BME280;12312;53.362;-1.518;2022-10-16T12:30:41;98749.84;;;16.64;42.60
24154;BME280;12312;53.362;-1.518;2022-10-16T12:33:25;98759.28;;;16.17;43.90
24154;BME280;12312;53.362;-1.518;2022-10-16T12:35:53;98766.13;;;15.23;47.21
24154;BME280;12312;53.362;-1.518;2022-10-16T12:38:29;98768.41;;;15.18;47.07
24154;BME280;12312;53.362;-1.518;2022-10-16T12:41:02;98773.66;;;14.56;48.57
24154;BME280;12312;53.362;-1.518;2022-10-16T12:43:46;98770.50;;;14.34;48.39
24154;BME280;12312;53.362;-1.518;2022-10-16T12:48:41;98767.56;;;14.27;49.85
24154;BME280;12312;53.362;-1.518;2022-10-16T12:51:19;98776.47;;;13.89;52.39
24154;BME280;12312;53.362;-1.518;2022-10-16T12:53:46;98772.22;;;14.15;48.23
24154;BME280;12312;53.362;-1.518;2022-10-16T12:59:35;98780.97;;;14.08;50.00
24154;BME280;12312;53.362;-1.518;2022-10-16T13:05:30;98779.25;;;14.99;49.18
24154;BME280;12312;53.362;-1.518;2022-10-16T13:11:06;98795.19;;;15.01;47.96
24154;BME280;12312;53.362;-1.518;2022-10-16T13:13:44;98785.88;;;14.68;48.05
24154;BME280;12312;53.362;-1.518;2022-10-16T13:29:52;98776.66;;;14.53;52.24
24154;BME280;12312;53.362;-1.518;2022-10-16T13:32:19;98769.63;;;14.52;50.81
24154;BME280;12312;53.362;-1.518;2022-10-16T13:34:46;98780.38;;;14.33;52.55
24154;BME280;12312;53.362;-1.518;2022-10-16T13:37:22;98780.13;;;13.98;53.01
24154;BME280;12312;53.362;-1.518;2022-10-16T13:39:48;98773.66;;;13.81;52.75
24154;BME280;12312;53.362;-1.518;2022-10-16T13:42:21;98775.06;;;13.57;54.26
24154;BME280;12312;53.362;-1.518;2022-10-16T13:44:50;98784.94;;;13.47;54.54
24154;BME280;12312;53.362;-1.518;2022-10-16T13:47:22;98788.59;;;13.46;54.94
24154;BME280;12312;53.362;-1.518;2022-10-16T13:52:30;98769.97;;;13.16;54.09
24154;BME280;12312;53.362;-1.518;2022-10-16T13:54:56;98771.97;;;13.33;55.55
24154;BME280;12312;53.362;-1.518;2022-10-16T13:57:24;98774.81;;;13.41;54.66
24154;BME280;12312;53.362;-1.518;2022-10-16T13:59:51;98775.94;;;13.38;56.05
24154;BME280;12312;53.362;-1.518;2022-10-16T14:02:19;98775.38;;;13.63;54.32
24154;BME280;12312;53.362;-1.518;2022-10-16T14:04:47;98781.25;;;13.48;54.38
24154;BME280;12312;53.362;-1.518;2022-10-16T14:07:20;98784.06;;;13.46;53.18
24154;BME280;12312;53.362;-1.518;2022-10-16T14:09:50;98791.28;;;13.46;53.54
24154;BME280;12312;53.362;-1.518;2022-10-16T14:12:17;98787.75;;;13.55;53.25
24154;BME280;12312;53.362;-1.518;2022-10-16T14:14:48;98786.88;;;13.45;52.38
24154;BME280;12312;53.362;-1.518;2022-10-16T14:17:32;98773.94;;;13.40;53.26
24154;BME280;12312;53.362;-1.518;2022-10-16T14:20:01;98790.81;;;13.31;53.97
24154;BME280;12312;53.362;-1.518;2022-10-16T14:22:39;98791.63;;;13.13;56.05
24154;BME280;12312;53.362;-1.518;2022-10-16T14:25:28;98789.59;;;12.96;56.87
24154;BME280;12312;53.362;-1.518;2022-10-16T14:28:01;98793.31;;;13.23;57.50
24154;BME280;12312;53.362;-1.518;2022-10-16T14:30:28;98787.16;;;13.23;56.40
24154;BME280;12312;53.362;-1.518;2022-10-16T14:32:59;98790.25;;;13.28;56.21
24154;BME280;12312;53.362;-1.518;2022-10-16T14:35:37;98795.59;;;13.37;54.97
24154;BME280;12312;53.362;-1.518;2022-10-16T14:38:05;98804.88;;;13.24;55.20
24154;BME280;12312;53.362;-1.518;2022-10-16T14:40:33;98801.91;;;13.08;55.13
24154;BME280;12312;53.362;-1.518;2022-10-16T14:43:01;98800.53;;;13.23;52.73
24154;BME280;12312;53.362;-1.518;2022-10-16T14:45:30;98787.28;;;13.31;55.21
24154;BME280;12312;53.362;-1.518;2022-10-16T14:48:06;98791.94;;;13.19;53.95
24154;BME280;12312;53.362;-1.518;2022-10-16T14:50:43;98799.34;;;13.16;55.11
24154;BME280;12312;53.362;-1.518;2022-10-16T14:53:12;98802.31;;;13.03;55.52
24154;BME280;12312;53.362;-1.518;2022-10-16T14:55:40;98808.56;;;12.93;56.21
24154;BME280;12312;53.362;-1.518;2022-10-16T14:58:21;98808.84;;;12.90;54.91